sensor_id;sensor_type;location;lat;lon;timestamp;P1;durP1;ratioP1;P2;durP2;ratioP2
12120;SDS011;6124;59.460;17.908;2023-08-20T00:02:01;5.93;;;5.37;;
12120;SDS011;6124;59.460;17.908;2023-08-20T00:04:28;5.63;;;4.87;;
12120;SDS011;6124;59.460;17.908;2023-08-20T00:06:59;5.83;;;5.23;;
12120;SDS011;6124;59.460;17.908;2023-08-20T00:09:27;8.53;;;5.47;;
12120;SDS011;6124;59.460;17.908;2023-08-20T00:11:55;6.90;;;5.70;;
12120;SDS011;6124;59.460;17.908;2023-08-20T00:17:05;6.00;;;5.40;;
12120;SDS011;6124;59.460;17.908;2023-08-20T00:19:33;6.20;;;5.57;;
12120;SDS011;6124;59.460;17.908;2023-08-20T00:22:01;7.13;;;5.80;;
12120;SDS011;6124;59.460;17.908;2023-08-20T00:24:29;6.07;;;5.47;;
12120;SDS011;6124;59.460;17.908;2023-08-20T00:26:56;6.80;;;5.27;;
12120;SDS011;6124;59.460;17.908;2023-08-20T00:29:24;5.53;;;5.00;;
12120;SDS011;6124;59.460;17.908;2023-08-20T00:31:51;6.57;;;5.33;;
12120;SDS011;6124;59.460;17.908;2023-08-20T00:34:18;6.17;;;5.57;;
12120;SDS011;6124;59.460;17.908;2023-08-20T00:36:45;5.77;;;5.17;;
12120;SDS011;6124;59.460;17.908;2023-08-20T00:39:14;6.17;;;5.47;;
12120;SDS011;6124;59.460;17.908;2023-08-20T00:41:41;5.77;;;5.17;;
12120;SDS011;6124;59.460;17.908;2023-08-20T00:44:09;5.60;;;5.00;;
12120;SDS011;6124;59.460;17.908;2023-08-20T00:46:36;5.40;;;4.90;;
12120;SDS011;6124;59.460;17.908;2023-08-20T00:49:04;7.27;;;5.43;;
12120;SDS011;6124;59.460;17.908;2023-08-20T00:51:32;6.17;;;5.23;;
12120;SDS011;6124;59.460;17.908;2023-08-20T00:54:00;6.63;;;5.50;;
12120;SDS011;6124;59.460;17.908;2023-08-20T00:56:29;5.80;;;5.23;;
12120;SDS011;6124;59.460;17.908;2023-08-20T00:58:56;5.90;;;5.00;;
12120;SDS011;6124;59.460;17.908;2023-08-20T01:01:24;4.67;;;4.27;;
12120;SDS011;6124;59.460;17.908;2023-08-20T01:03:51;5.33;;;4.60;;
12120;SDS011;6124;59.460;17.908;2023-08-20T01:06:19;6.63;;;5.00;;
12120;SDS011;6124;59.460;17.908;2023-08-20T01:08:49;6.03;;;4.77;;
12120;SDS011;6124;59.460;17.908;2023-08-20T01:11:21;5.07;;;4.57;;
12120;SDS011;6124;59.460;17.908;2023-08-20T01:13:49;6.97;;;4.50;;
12120;SDS011;6124;59.460;17.908;2023-08-20T01:16:17;5.43;;;3.97;;
12120;SDS011;6124;59.460;17.908;2023-08-20T01:18:44;4.97;;;3.97;;
12120;SDS011;6124;59.460;17.908;2023-08-20T01:21:15;11.47;;;4.60;;
12120;SDS011;6124;59.460;17.908;2023-08-20T01:23:51;5.07;;;4.00;;
12120;SDS011;6124;59.460;17.908;2023-08-20T01:26:21;6.50;;;3.83;;
12120;SDS011;6124;59.460;17.908;2023-08-20T01:28:54;6.00;;;3.77;;
12120;SDS011;6124;59.460;17.908;2023-08-20T01:31:22;7.50;;;3.80;;
12120;SDS011;6124;59.460;17.908;2023-08-20T01:33:50;4.53;;;3.63;;
12120;SDS011;6124;59.460;17.908;2023-08-20T01:36:17;4.40;;;3.97;;
12120;SDS011;6124;59.460;17.908;2023-08-20T01:38:44;5.43;;;3.90;;
12120;SDS011;6124;59.460;17.908;2023-08-20T01:41:12;4.50;;;4.10;;
12120;SDS011;6124;59.460;17.908;2023-08-20T01:43:39;5.00;;;3.70;;
12120;SDS011;6124;59.460;17.908;2023-08-20T01:46:08;4.50;;;4.10;;
12120;SDS011;6124;59.460;17.908;2023-08-20T01:48:35;6.27;;;4.33;;
12120;SDS011;6124;59.460;17.908;2023-08-20T01:51:03;4.70;;;4.17;;
12120;SDS011;6124;59.460;17.908;2023-08-20T01:53:30;4.03;;;3.70;;
12120;SDS011;6124;59.460;17.908;2023-08-20T01:55:57;4.47;;;4.07;;
12120;SDS011;6124;59.460;17.908;2023-08-20T01:58:25;4.80;;;4.40;;
12120;SDS011;6124;59.460;17.908;2023-08-20T02:00:52;6.17;;;4.67;;
12120;SDS011;6124;59.460;17.908;2023-08-20T02:03:21;5.90;;;5.03;;
12120;SDS011;6124;59.460;17.908;2023-08-20T02:05:48;6.17;;;4.00;;
12120;SDS011;6124;59.460;17.908;2023-08-20T02:08:15;8.77;;;5.07;;
12120;SDS011;6124;59.460;17.908;2023-08-20T02:10:42;5.07;;;4.40;;
12120;SDS011;6124;59.460;17.908;2023-08-20T02:13:10;5.90;;;5.30;;
12120;SDS011;6124;59.460;17.908;2023-08-20T02:15:37;5.70;;;4.40;;
12120;SDS011;6124;59.460;17.908;2023-08-20T02:18:04;6.30;;;5.00;;
12120;SDS011;6124;59.460;17.908;2023-08-20T02:20:33;6.20;;;4.87;;
12120;SDS011;6124;59.460;17.908;2023-08-20T02:23:01;5.83;;;4.93;;
12120;SDS011;6124;59.460;17.908;2023-08-20T02:25:28;4.93;;;4.47;;
12120;SDS011;6124;59.460;17.908;2023-08-20T02:27:55;6.27;;;4.63;;
12120;SDS011;6124;59.460;17.908;2023-08-20T02:30:22;6.53;;;5.07;;
12120;SDS011;6124;59.460;17.908;2023-08-20T02:32:50;5.77;;;5.07;;
12120;SDS011;6124;59.460;17.908;2023-08-20T02:35:17;5.43;;;4.93;;
12120;SDS011;6124;59.460;17.908;2023-08-20T02:37:46;5.70;;;4.90;;
12120;SDS011;6124;59.460;17.908;2023-08-20T02:40:13;5.30;;;4.70;;
12120;SDS011;6124;59.460;17.908;2023-08-20T02:42:41;6.20;;;4.83;;
12120;SDS011;6124;59.460;17.908;2023-08-20T02:45:08;6.73;;;5.40;;
12120;SDS011;6124;59.460;17.908;2023-08-20T02:47:35;5.60;;;4.83;;
12120;SDS011;6124;59.460;17.908;2023-08-20T02:50:03;5.90;;;4.63;;
12120;SDS011;6124;59.460;17.908;2023-08-20T02:52:30;5.80;;;4.77;;
12120;SDS011;6124;59.460;17.908;2023-08-20T02:54:59;5.30;;;4.50;;
12120;SDS011;6124;59.460;17.908;2023-08-20T02:57:26;5.80;;;4.67;;
12120;SDS011;6124;59.460;17.908;2023-08-20T02:59:54;5.10;;;4.50;;
12120;SDS011;6124;59.460;17.908;2023-08-20T03:02:21;5.97;;;5.00;;
12120;SDS011;6124;59.460;17.908;2023-08-20T03:04:48;5.80;;;5.20;;
12120;SDS011;6124;59.460;17.908;2023-08-20T03:07:16;5.70;;;5.00;;
12120;SDS011;6124;59.460;17.908;2023-08-20T03:09:43;5.50;;;4.80;;
12120;SDS011;6124;59.460;17.908;2023-08-20T03:12:12;5.20;;;4.33;;
12120;SDS011;6124;59.460;17.908;2023-08-20T03:14:39;5.37;;;4.87;;
12120;SDS011;6124;59.460;17.908;2023-08-20T03:17:06;5.40;;;4.90;;
12120;SDS011;6124;59.460;17.908;2023-08-20T03:19:34;8.67;;;4.80;;
12120;SDS011;6124;59.460;17.908;2023-08-20T03:22:01;6.57;;;5.23;;
12120;SDS011;6124;59.460;17.908;2023-08-20T03:24:28;5.43;;;4.73;;
12120;SDS011;6124;59.460;17.908;2023-08-20T03:26:55;11.50;;;5.30;;
12120;SDS011;6124;59.460;17.908;2023-08-20T03:29:24;7.43;;;4.90;;
12120;SDS011;6124;59.460;17.908;2023-08-20T03:31:51;4.93;;;4.53;;
12120;SDS011;6124;59.460;17.908;2023-08-20T03:34:19;5.83;;;4.60;;
12120;SDS011;6124;59.460;17.908;2023-08-20T03:36:46;8.27;;;4.67;;
12120;SDS011;6124;59.460;17.908;2023-08-20T03:39:13;5.37;;;4.50;;
12120;SDS011;6124;59.460;17.908;2023-08-20T03:41:41;7.03;;;4.90;;
12120;SDS011;6124;59.460;17.908;2023-08-20T03:44:08;7.23;;;4.87;;
12120;SDS011;6124;59.460;17.908;2023-08-20T03:46:37;6.00;;;5.10;;
12120;SDS011;6124;59.460;17.908;2023-08-20T03:49:04;5.33;;;4.83;;
12120;SDS011;6124;59.460;17.908;2023-08-20T03:51:31;5.87;;;4.60;;
12120;SDS011;6124;59.460;17.908;2023-08-20T03:53:58;5.17;;;4.67;;
12120;SDS011;6124;59.460;17.908;2023-08-20T03:56:26;5.60;;;5.00;;
12120;SDS011;6124;59.460;17.908;2023-08-20T03:58:53;4.93;;;4.40;;
12120;SDS011;6124;59.460;17.908;2023-08-20T04:01:20;5.60;;;4.73;;
12120;SDS011;6124;59.460;17.908;2023-08-20T04:03:49;6.93;;;4.70;;
12120;SDS011;6124;59.460;17.908;2023-08-20T04:06:16;5.20;;;4.70;;
12120;SDS011;6124;59.460;17.908;2023-08-20T04:08:44;6.30;;;4.60;;
12120;SDS011;6124;59.460;17.908;2023-08-20T04:11:11;5.37;;;4.20;;
12120;SDS011;6124;59.460;17.908;2023-08-20T04:13:38;5.47;;;4.83;;
12120;SDS011;6124;59.460;17.908;2023-08-20T04:16:08;6.30;;;5.10;;
12120;SDS011;6124;59.460;17.908;2023-08-20T04:18:36;5.60;;;4.67;;
12120;SDS011;6124;59.460;17.908;2023-08-20T04:21:04;5.20;;;4.67;;
12120;SDS011;6124;59.460;17.908;2023-08-20T04:23:32;6.57;;;4.60;;
12120;SDS011;6124;59.460;17.908;2023-08-20T04:25:59;5.07;;;4.57;;
12120;SDS011;6124;59.460;17.908;2023-08-20T04:28:26;4.60;;;4.20;;
12120;SDS011;6124;59.460;17.908;2023-08-20T04:30:54;5.97;;;4.37;;
12120;SDS011;6124;59.460;17.908;2023-08-20T04:33:23;4.47;;;4.07;;
12120;SDS011;6124;59.460;17.908;2023-08-20T04:35:50;4.97;;;4.20;;
12120;SDS011;6124;59.460;17.908;2023-08-20T04:38:19;5.60;;;4.40;;
12120;SDS011;6124;59.460;17.908;2023-08-20T04:40:46;4.80;;;4.27;;
12120;SDS011;6124;59.460;17.908;2023-08-20T04:43:13;4.97;;;4.23;;
12120;SDS011;6124;59.460;17.908;2023-08-20T04:45:40;6.73;;;3.90;;
12120;SDS011;6124;59.460;17.908;2023-08-20T04:48:08;6.17;;;4.10;;
12120;SDS011;6124;59.460;17.908;2023-08-20T04:50:35;4.20;;;3.80;;
12120;SDS011;6124;59.460;17.908;2023-08-20T04:53:02;4.57;;;3.63;;
12120;SDS011;6124;59.460;17.908;2023-08-20T04:55:31;4.90;;;3.93;;
12120;SDS011;6124;59.460;17.908;2023-08-20T04:57:58;4.73;;;3.80;;
12120;SDS011;6124;59.460;17.908;2023-08-20T05:00:26;5.07;;;4.00;;
12120;SDS011;6124;59.460;17.908;2023-08-20T05:02:53;4.37;;;3.50;;
12120;SDS011;6124;59.460;17.908;2023-08-20T05:05:22;5.13;;;3.70;;
12120;SDS011;6124;59.460;17.908;2023-08-20T05:07:50;4.20;;;3.80;;
12120;SDS011;6124;59.460;17.908;2023-08-20T05:10:17;4.23;;;3.60;;
12120;SDS011;6124;59.460;17.908;2023-08-20T05:12:46;3.93;;;3.50;;
12120;SDS011;6124;59.460;17.908;2023-08-20T05:15:14;3.47;;;3.10;;
12120;SDS011;6124;59.460;17.908;2023-08-20T05:17:41;4.23;;;3.60;;
12120;SDS011;6124;59.460;17.908;2023-08-20T05:20:08;3.53;;;3.23;;
12120;SDS011;6124;59.460;17.908;2023-08-20T05:22:36;4.70;;;3.33;;
12120;SDS011;6124;59.460;17.908;2023-08-20T05:25:03;4.57;;;3.60;;
12120;SDS011;6124;59.460;17.908;2023-08-20T05:27:31;3.27;;;2.97;;
12120;SDS011;6124;59.460;17.908;2023-08-20T05:29:59;5.70;;;3.30;;
12120;SDS011;6124;59.460;17.908;2023-08-20T05:32:28;4.90;;;3.07;;
12120;SDS011;6124;59.460;17.908;2023-08-20T05:34:55;3.50;;;3.20;;
12120;SDS011;6124;59.460;17.908;2023-08-20T05:37:22;4.83;;;3.10;;
12120;SDS011;6124;59.460;17.908;2023-08-20T05:39:49;3.50;;;3.20;;
12120;SDS011;6124;59.460;17.908;2023-08-20T05:42:17;3.37;;;3.07;;
12120;SDS011;6124;59.460;17.908;2023-08-20T05:44:44;3.30;;;3.03;;
12120;SDS011;6124;59.460;17.908;2023-08-20T05:47:13;3.63;;;2.97;;
12120;SDS011;6124;59.460;17.908;2023-08-20T05:49:40;4.13;;;2.97;;
12120;SDS011;6124;59.460;17.908;2023-08-20T05:52:07;2.87;;;2.63;;
12120;SDS011;6124;59.460;17.908;2023-08-20T05:54:35;3.43;;;3.13;;
12120;SDS011;6124;59.460;17.908;2023-08-20T05:57:02;3.17;;;2.83;;
12120;SDS011;6124;59.460;17.908;2023-08-20T05:59:30;2.90;;;2.60;;
12120;SDS011;6124;59.460;17.908;2023-08-20T06:01:57;3.03;;;2.70;;
12120;SDS011;6124;59.460;17.908;2023-08-20T06:04:26;3.30;;;3.00;;
12120;SDS011;6124;59.460;17.908;2023-08-20T06:06:53;2.60;;;2.40;;
12120;SDS011;6124;59.460;17.908;2023-08-20T06:09:20;3.27;;;2.63;;
12120;SDS011;6124;59.460;17.908;2023-08-20T06:11:47;4.93;;;2.80;;
12120;SDS011;6124;59.460;17.908;2023-08-20T06:14:16;3.07;;;2.60;;
12120;SDS011;6124;59.460;17.908;2023-08-20T06:16:43;5.03;;;2.80;;
12120;SDS011;6124;59.460;17.908;2023-08-20T06:19:11;3.43;;;2.60;;
12120;SDS011;6124;59.460;17.908;2023-08-20T06:21:39;4.13;;;2.60;;
12120;SDS011;6124;59.460;17.908;2023-08-20T06:24:07;2.77;;;2.40;;
12120;SDS011;6124;59.460;17.908;2023-08-20T06:26:34;2.80;;;2.33;;
12120;SDS011;6124;59.460;17.908;2023-08-20T06:29:02;4.10;;;2.40;;
12120;SDS011;6124;59.460;17.908;2023-08-20T06:31:29;3.60;;;2.40;;
12120;SDS011;6124;59.460;17.908;2023-08-20T06:33:56;2.70;;;2.50;;
12120;SDS011;6124;59.460;17.908;2023-08-20T06:36:24;2.67;;;2.37;;
12120;SDS011;6124;59.460;17.908;2023-08-20T06:38:53;4.00;;;2.40;;
12120;SDS011;6124;59.460;17.908;2023-08-20T06:41:20;3.23;;;2.40;;
12120;SDS011;6124;59.460;17.908;2023-08-20T06:43:47;2.37;;;2.17;;
12120;SDS011;6124;59.460;17.908;2023-08-20T06:46:14;2.47;;;2.20;;
12120;SDS011;6124;59.460;17.908;2023-08-20T06:48:42;2.83;;;2.20;;
12120;SDS011;6124;59.460;17.908;2023-08-20T06:51:12;2.27;;;2.03;;
12120;SDS011;6124;59.460;17.908;2023-08-20T06:53:40;2.70;;;2.40;;
12120;SDS011;6124;59.460;17.908;2023-08-20T06:56:09;2.60;;;2.30;;
12120;SDS011;6124;59.460;17.908;2023-08-20T06:58:37;3.80;;;2.20;;
12120;SDS011;6124;59.460;17.908;2023-08-20T07:01:05;3.80;;;2.30;;
12120;SDS011;6124;59.460;17.908;2023-08-20T07:03:37;2.63;;;2.00;;
12120;SDS011;6124;59.460;17.908;2023-08-20T07:06:04;3.70;;;2.47;;
12120;SDS011;6124;59.460;17.908;2023-08-20T07:08:32;2.77;;;2.07;;
12120;SDS011;6124;59.460;17.908;2023-08-20T07:10:59;2.83;;;2.17;;
12120;SDS011;6124;59.460;17.908;2023-08-20T07:13:28;2.77;;;2.40;;
12120;SDS011;6124;59.460;17.908;2023-08-20T07:15:55;3.40;;;2.30;;
12120;SDS011;6124;59.460;17.908;2023-08-20T07:18:23;3.00;;;2.57;;
12120;SDS011;6124;59.460;17.908;2023-08-20T07:20:50;3.13;;;2.20;;
12120;SDS011;6124;59.460;17.908;2023-08-20T07:23:18;3.00;;;2.70;;
12120;SDS011;6124;59.460;17.908;2023-08-20T07:25:45;2.40;;;2.20;;
12120;SDS011;6124;59.460;17.908;2023-08-20T07:28:13;2.30;;;2.10;;
12120;SDS011;6124;59.460;17.908;2023-08-20T07:30:47;2.70;;;2.33;;
12120;SDS011;6124;59.460;17.908;2023-08-20T07:33:15;2.60;;;2.40;;
12120;SDS011;6124;59.460;17.908;2023-08-20T07:35:42;3.70;;;2.23;;
12120;SDS011;6124;59.460;17.908;2023-08-20T07:38:09;3.33;;;2.30;;
12120;SDS011;6124;59.460;17.908;2023-08-20T07:40:37;3.20;;;2.50;;
12120;SDS011;6124;59.460;17.908;2023-08-20T07:43:04;2.60;;;2.20;;
12120;SDS011;6124;59.460;17.908;2023-08-20T07:45:31;2.87;;;2.23;;
12120;SDS011;6124;59.460;17.908;2023-08-20T07:48:00;4.03;;;2.57;;
12120;SDS011;6124;59.460;17.908;2023-08-20T07:50:27;2.70;;;2.50;;
12120;SDS011;6124;59.460;17.908;2023-08-20T07:52:54;2.30;;;1.83;;
12120;SDS011;6124;59.460;17.908;2023-08-20T07:55:22;3.27;;;2.60;;
12120;SDS011;6124;59.460;17.908;2023-08-20T07:57:49;3.30;;;2.37;;
12120;SDS011;6124;59.460;17.908;2023-08-20T08:00:18;3.43;;;2.30;;
12120;SDS011;6124;59.460;17.908;2023-08-20T08:02:45;2.40;;;2.20;;
12120;SDS011;6124;59.460;17.908;2023-08-20T08:05:14;3.17;;;2.57;;
12120;SDS011;6124;59.460;17.908;2023-08-20T08:07:41;2.53;;;2.30;;
12120;SDS011;6124;59.460;17.908;2023-08-20T08:10:08;2.30;;;2.10;;
12120;SDS011;6124;59.460;17.908;2023-08-20T08:12:36;2.50;;;2.30;;
12120;SDS011;6124;59.460;17.908;2023-08-20T08:15:03;2.87;;;2.40;;
12120;SDS011;6124;59.460;17.908;2023-08-20T08:17:31;3.40;;;2.10;;
12120;SDS011;6124;59.460;17.908;2023-08-20T08:19:58;3.20;;;2.30;;
12120;SDS011;6124;59.460;17.908;2023-08-20T08:22:27;3.13;;;2.37;;
12120;SDS011;6124;59.460;17.908;2023-08-20T08:24:54;2.30;;;2.10;;
12120;SDS011;6124;59.460;17.908;2023-08-20T08:27:21;2.77;;;2.10;;
12120;SDS011;6124;59.460;17.908;2023-08-20T08:29:50;2.40;;;2.20;;
12120;SDS011;6124;59.460;17.908;2023-08-20T08:32:17;2.20;;;2.00;;
12120;SDS011;6124;59.460;17.908;2023-08-20T08:34:44;2.27;;;1.97;;
12120;SDS011;6124;59.460;17.908;2023-08-20T08:37:12;2.63;;;2.13;;
12120;SDS011;6124;59.460;17.908;2023-08-20T08:39:42;2.33;;;1.87;;
12120;SDS011;6124;59.460;17.908;2023-08-20T08:42:10;2.20;;;1.97;;
12120;SDS011;6124;59.460;17.908;2023-08-20T08:44:37;3.47;;;2.27;;
12120;SDS011;6124;59.460;17.908;2023-08-20T08:47:05;3.20;;;2.30;;
12120;SDS011;6124;59.460;17.908;2023-08-20T08:49:32;2.63;;;2.13;;
12120;SDS011;6124;59.460;17.908;2023-08-20T08:52:00;2.73;;;2.47;;
12120;SDS011;6124;59.460;17.908;2023-08-20T08:54:28;3.97;;;2.93;;
12120;SDS011;6124;59.460;17.908;2023-08-20T08:56:57;2.70;;;2.20;;
12120;SDS011;6124;59.460;17.908;2023-08-20T08:59:24;3.07;;;2.30;;
12120;SDS011;6124;59.460;17.908;2023-08-20T09:01:52;2.67;;;2.47;;
12120;SDS011;6124;59.460;17.908;2023-08-20T09:04:19;3.53;;;2.40;;
12120;SDS011;6124;59.460;17.908;2023-08-20T09:06:46;3.33;;;2.30;;
12120;SDS011;6124;59.460;17.908;2023-08-20T09:09:14;2.83;;;2.60;;
12120;SDS011;6124;59.460;17.908;2023-08-20T09:11:41;2.77;;;2.40;;
12120;SDS011;6124;59.460;17.908;2023-08-20T09:14:12;6.53;;;2.67;;
12120;SDS011;6124;59.460;17.908;2023-08-20T09:16:49;3.07;;;2.30;;
12120;SDS011;6124;59.460;17.908;2023-08-20T09:19:20;2.93;;;2.70;;
12120;SDS011;6124;59.460;17.908;2023-08-20T09:21:48;2.50;;;2.30;;
12120;SDS011;6124;59.460;17.908;2023-08-20T09:24:25;4.20;;;2.47;;
12120;SDS011;6124;59.460;17.908;2023-08-20T09:26:56;3.57;;;2.70;;
12120;SDS011;6124;59.460;17.908;2023-08-20T09:29:25;3.20;;;2.53;;
12120;SDS011;6124;59.460;17.908;2023-08-20T09:31:59;4.10;;;2.70;;
12120;SDS011;6124;59.460;17.908;2023-08-20T09:34:35;4.83;;;2.50;;
12120;SDS011;6124;59.460;17.908;2023-08-20T09:37:03;3.53;;;2.83;;
12120;SDS011;6124;59.460;17.908;2023-08-20T09:39:30;3.63;;;2.63;;
12120;SDS011;6124;59.460;17.908;2023-08-20T09:41:57;3.07;;;2.70;;
12120;SDS011;6124;59.460;17.908;2023-08-20T09:44:27;4.20;;;2.70;;
12120;SDS011;6124;59.460;17.908;2023-08-20T09:46:55;3.40;;;2.77;;
12120;SDS011;6124;59.460;17.908;2023-08-20T09:49:22;4.27;;;2.90;;
12120;SDS011;6124;59.460;17.908;2023-08-20T09:51:51;3.67;;;2.60;;
12120;SDS011;6124;59.460;17.908;2023-08-20T09:54:21;3.47;;;2.70;;
12120;SDS011;6124;59.460;17.908;2023-08-20T09:56:54;4.70;;;2.83;;
12120;SDS011;6124;59.460;17.908;2023-08-20T09:59:21;3.10;;;2.90;;
12120;SDS011;6124;59.460;17.908;2023-08-20T10:01:50;3.13;;;2.93;;
12120;SDS011;6124;59.460;17.908;2023-08-20T10:04:18;5.17;;;3.13;;
12120;SDS011;6124;59.460;17.908;2023-08-20T10:06:47;2.67;;;2.47;;
12120;SDS011;6124;59.460;17.908;2023-08-20T10:09:15;3.03;;;2.60;;
12120;SDS011;6124;59.460;17.908;2023-08-20T10:11:42;2.90;;;2.70;;
12120;SDS011;6124;59.460;17.908;2023-08-20T10:14:10;4.33;;;2.70;;
12120;SDS011;6124;59.460;17.908;2023-08-20T10:16:37;3.27;;;2.70;;
12120;SDS011;6124;59.460;17.908;2023-08-20T10:19:07;3.17;;;2.63;;
12120;SDS011;6124;59.460;17.908;2023-08-20T10:21:34;3.20;;;2.90;;
12120;SDS011;6124;59.460;17.908;2023-08-20T10:24:05;4.43;;;2.77;;
12120;SDS011;6124;59.460;17.908;2023-08-20T10:26:33;2.50;;;2.30;;
12120;SDS011;6124;59.460;17.908;2023-08-20T10:31:46;3.17;;;2.70;;
12120;SDS011;6124;59.460;17.908;2023-08-20T10:34:15;3.40;;;2.50;;
12120;SDS011;6124;59.460;17.908;2023-08-20T10:37:01;2.90;;;2.60;;
12120;SDS011;6124;59.460;17.908;2023-08-20T10:39:29;11.83;;;3.40;;
12120;SDS011;6124;59.460;17.908;2023-08-20T10:42:08;5.83;;;2.90;;
12120;SDS011;6124;59.460;17.908;2023-08-20T10:47:23;3.23;;;2.50;;
12120;SDS011;6124;59.460;17.908;2023-08-20T10:49:53;4.10;;;2.73;;
12120;SDS011;6124;59.460;17.908;2023-08-20T10:52:22;3.93;;;2.70;;
12120;SDS011;6124;59.460;17.908;2023-08-20T10:54:50;4.57;;;2.67;;
12120;SDS011;6124;59.460;17.908;2023-08-20T10:57:17;3.17;;;2.47;;
12120;SDS011;6124;59.460;17.908;2023-08-20T10:59:55;3.40;;;2.70;;
12120;SDS011;6124;59.460;17.908;2023-08-20T11:02:23;3.03;;;2.73;;
12120;SDS011;6124;59.460;17.908;2023-08-20T11:04:51;3.53;;;2.90;;
12120;SDS011;6124;59.460;17.908;2023-08-20T11:07:21;2.53;;;2.30;;
12120;SDS011;6124;59.460;17.908;2023-08-20T11:09:49;4.37;;;2.80;;
12120;SDS011;6124;59.460;17.908;2023-08-20T11:12:19;4.70;;;3.20;;
12120;SDS011;6124;59.460;17.908;2023-08-20T11:14:47;4.57;;;2.37;;
12120;SDS011;6124;59.460;17.908;2023-08-20T11:17:14;3.00;;;2.60;;
12120;SDS011;6124;59.460;17.908;2023-08-20T11:19:42;3.13;;;2.83;;
12120;SDS011;6124;59.460;17.908;2023-08-20T11:22:09;6.27;;;3.00;;
12120;SDS011;6124;59.460;17.908;2023-08-20T11:24:41;5.17;;;2.90;;
12120;SDS011;6124;59.460;17.908;2023-08-20T11:27:09;3.50;;;2.70;;
12120;SDS011;6124;59.460;17.908;2023-08-20T11:29:37;4.40;;;3.00;;
12120;SDS011;6124;59.460;17.908;2023-08-20T11:32:08;3.10;;;2.80;;
12120;SDS011;6124;59.460;17.908;2023-08-20T11:34:36;4.20;;;2.80;;
12120;SDS011;6124;59.460;17.908;2023-08-20T11:37:04;4.90;;;3.17;;
12120;SDS011;6124;59.460;17.908;2023-08-20T11:39:31;5.20;;;3.73;;
12120;SDS011;6124;59.460;17.908;2023-08-20T11:42:00;3.50;;;3.00;;
12120;SDS011;6124;59.460;17.908;2023-08-20T11:44:28;3.40;;;3.10;;
12120;SDS011;6124;59.460;17.908;2023-08-20T11:46:55;3.70;;;2.80;;
12120;SDS011;6124;59.460;17.908;2023-08-20T11:49:28;2.90;;;2.67;;
12120;SDS011;6124;59.460;17.908;2023-08-20T11:51:56;4.07;;;3.33;;
12120;SDS011;6124;59.460;17.908;2023-08-20T11:54:23;3.07;;;2.77;;
12120;SDS011;6124;59.460;17.908;2023-08-20T11:56:51;6.97;;;3.17;;
12120;SDS011;6124;59.460;17.908;2023-08-20T11:59:20;3.87;;;2.97;;
12120;SDS011;6124;59.460;17.908;2023-08-20T12:01:51;3.10;;;2.83;;
12120;SDS011;6124;59.460;17.908;2023-08-20T12:04:18;3.57;;;3.20;;
12120;SDS011;6124;59.460;17.908;2023-08-20T12:06:52;10.57;;;3.20;;
12120;SDS011;6124;59.460;17.908;2023-08-20T12:09:28;3.37;;;2.80;;
12120;SDS011;6124;59.460;17.908;2023-08-20T12:11:56;3.27;;;2.87;;
12120;SDS011;6124;59.460;17.908;2023-08-20T12:14:25;3.80;;;2.93;;
12120;SDS011;6124;59.460;17.908;2023-08-20T12:16:53;4.40;;;3.00;;
12120;SDS011;6124;59.460;17.908;2023-08-20T12:19:21;4.73;;;2.80;;
12120;SDS011;6124;59.460;17.908;2023-08-20T12:21:48;3.37;;;2.93;;
12120;SDS011;6124;59.460;17.908;2023-08-20T12:24:16;3.77;;;2.83;;
12120;SDS011;6124;59.460;17.908;2023-08-20T12:26:44;4.17;;;3.10;;
12120;SDS011;6124;59.460;17.908;2023-08-20T12:29:11;4.20;;;3.40;;
12120;SDS011;6124;59.460;17.908;2023-08-20T12:31:40;3.43;;;3.13;;
12120;SDS011;6124;59.460;17.908;2023-08-20T12:34:08;3.70;;;3.40;;
12120;SDS011;6124;59.460;17.908;2023-08-20T12:36:35;3.37;;;3.07;;
12120;SDS011;6124;59.460;17.908;2023-08-20T12:39:03;3.70;;;3.30;;
12120;SDS011;6124;59.460;17.908;2023-08-20T12:41:30;3.30;;;3.00;;
12120;SDS011;6124;59.460;17.908;2023-08-20T12:43:58;5.33;;;3.03;;
12120;SDS011;6124;59.460;17.908;2023-08-20T12:46:25;4.30;;;2.90;;
12120;SDS011;6124;59.460;17.908;2023-08-20T12:48:54;3.23;;;2.93;;
12120;SDS011;6124;59.460;17.908;2023-08-20T12:51:21;3.60;;;3.30;;
12120;SDS011;6124;59.460;17.908;2023-08-20T12:53:49;3.40;;;3.10;;
12120;SDS011;6124;59.460;17.908;2023-08-20T12:56:16;3.50;;;3.20;;
12120;SDS011;6124;59.460;17.908;2023-08-20T12:58:43;4.73;;;3.17;;
12120;SDS011;6124;59.460;17.908;2023-08-20T13:01:11;4.67;;;3.30;;
12120;SDS011;6124;59.460;17.908;2023-08-20T13:03:38;5.80;;;3.23;;
12120;SDS011;6124;59.460;17.908;2023-08-20T13:06:08;3.53;;;3.23;;
12120;SDS011;6124;59.460;17.908;2023-08-20T13:08:35;3.90;;;3.00;;
12120;SDS011;6124;59.460;17.908;2023-08-20T13:11:03;4.70;;;3.00;;
12120;SDS011;6124;59.460;17.908;2023-08-20T13:13:31;3.53;;;3.10;;
12120;SDS011;6124;59.460;17.908;2023-08-20T13:15:59;4.53;;;3.20;;
12120;SDS011;6124;59.460;17.908;2023-08-20T13:18:27;3.57;;;3.27;;
12120;SDS011;6124;59.460;17.908;2023-08-20T13:20:55;3.57;;;3.23;;
12120;SDS011;6124;59.460;17.908;2023-08-20T13:23:23;3.43;;;3.07;;
12120;SDS011;6124;59.460;17.908;2023-08-20T13:25:51;5.73;;;3.37;;
12120;SDS011;6124;59.460;17.908;2023-08-20T13:28:19;3.93;;;3.60;;
12120;SDS011;6124;59.460;17.908;2023-08-20T13:30:46;5.73;;;3.60;;
12120;SDS011;6124;59.460;17.908;2023-08-20T13:33:13;4.37;;;3.37;;
12120;SDS011;6124;59.460;17.908;2023-08-20T13:35:41;3.40;;;3.00;;
12120;SDS011;6124;59.460;17.908;2023-08-20T13:38:08;7.33;;;3.60;;
12120;SDS011;6124;59.460;17.908;2023-08-20T13:40:37;6.50;;;4.07;;
12120;SDS011;6124;59.460;17.908;2023-08-20T13:43:04;6.87;;;3.60;;
12120;SDS011;6124;59.460;17.908;2023-08-20T13:45:34;5.77;;;3.67;;
12120;SDS011;6124;59.460;17.908;2023-08-20T13:48:01;3.67;;;3.37;;
12120;SDS011;6124;59.460;17.908;2023-08-20T13:50:30;4.23;;;3.80;;
12120;SDS011;6124;59.460;17.908;2023-08-20T13:52:57;3.97;;;3.53;;
12120;SDS011;6124;59.460;17.908;2023-08-20T13:55:25;4.30;;;3.90;;
12120;SDS011;6124;59.460;17.908;2023-08-20T13:57:54;4.23;;;3.50;;
12120;SDS011;6124;59.460;17.908;2023-08-20T14:00:21;3.83;;;3.53;;
12120;SDS011;6124;59.460;17.908;2023-08-20T14:02:48;5.13;;;4.67;;
12120;SDS011;6124;59.460;17.908;2023-08-20T14:05:16;4.87;;;4.10;;
12120;SDS011;6124;59.460;17.908;2023-08-20T14:07:44;4.33;;;3.90;;
12120;SDS011;6124;59.460;17.908;2023-08-20T14:10:11;4.73;;;4.23;;
12120;SDS011;6124;59.460;17.908;2023-08-20T14:12:39;4.13;;;3.77;;
12120;SDS011;6124;59.460;17.908;2023-08-20T14:15:08;5.33;;;3.80;;
12120;SDS011;6124;59.460;17.908;2023-08-20T14:17:36;4.63;;;3.73;;
12120;SDS011;6124;59.460;17.908;2023-08-20T14:20:04;6.23;;;4.10;;
12120;SDS011;6124;59.460;17.908;2023-08-20T14:22:32;6.43;;;4.20;;
12120;SDS011;6124;59.460;17.908;2023-08-20T14:24:59;9.63;;;4.90;;
12120;SDS011;6124;59.460;17.908;2023-08-20T14:27:28;6.87;;;4.70;;
12120;SDS011;6124;59.460;17.908;2023-08-20T14:29:55;4.90;;;4.40;;
12120;SDS011;6124;59.460;17.908;2023-08-20T14:32:24;6.13;;;4.73;;
12120;SDS011;6124;59.460;17.908;2023-08-20T14:34:51;6.47;;;4.60;;
12120;SDS011;6124;59.460;17.908;2023-08-20T14:37:18;5.73;;;4.47;;
12120;SDS011;6124;59.460;17.908;2023-08-20T14:39:46;7.17;;;5.03;;
12120;SDS011;6124;59.460;17.908;2023-08-20T14:42:13;5.07;;;4.50;;
12120;SDS011;6124;59.460;17.908;2023-08-20T14:44:40;5.43;;;4.70;;
12120;SDS011;6124;59.460;17.908;2023-08-20T14:47:08;6.53;;;5.20;;
12120;SDS011;6124;59.460;17.908;2023-08-20T14:49:36;6.03;;;5.37;;
12120;SDS011;6124;59.460;17.908;2023-08-20T14:52:04;6.53;;;4.80;;
12120;SDS011;6124;59.460;17.908;2023-08-20T14:54:31;8.03;;;5.70;;
12120;SDS011;6124;59.460;17.908;2023-08-20T14:56:59;8.93;;;5.00;;
12120;SDS011;6124;59.460;17.908;2023-08-20T14:59:26;6.93;;;5.20;;
12120;SDS011;6124;59.460;17.908;2023-08-20T15:01:54;6.97;;;5.47;;